Los Angeles, California
Current Conditions -  °F | °C
As of 11:47 AM on Wednesday 17 Dec 2014 (Local Time) from KCQT Reporting Station
Few Clouds Few Clouds  
Wind Chill: 16°   Ceiling: Unl
Heat Index: 16°   Visibility: 10mi
Dew Point:   Wind: 0mph
Humidity: 64%   Direction: NA
Pressure: 30.05"   Gusts: NA
Location:  34.05°N, 118.24°W
Report Text: KCQT 171947Z AUTO 00000KT 10SM FEW028 16/09 A3005 RMK AO2 SLP174 T01560089
Loading
Personal Weather Stations






























Interactive Weather Map New forecast layout! Learn more

10-Day Weather Forecast

Advertisements
Track Severe Weather on mobile